Terminal Aerodrome Forecast
Issued by NWS Pueblo, CO

Home | Current Version | Previous Version | Text Only | Print | Product List | Glossary On
Versions: 1 2 3 4 5 6 7 8 9 10 11 12 13 14 15 16 17 18 19 20 21 22 23 24 25 26 27 28 29
000
FTUS45 KPUB 170520
TAFCOS
TAF
KCOS 170520Z 1706/1806 36005KT P6SM FEW110
     FM171500 VRB03KT P6SM SKC
     FM171800 13008KT P6SM SCT120
     FM180300 VRB05KT P6SM SCT120=

USA.gov is the U.S. government's official web portal to all federal, state and local government web resources and services.